sensor_id;sensor_type;location;lat;lon;timestamp;pressure;altitude;pressure_sealevel;temperature;humidity
61740;BME280;47645;45.288;12.038;2023-05-14T00:04:45;1014.5235106645927;;;13.2404296875;100
61740;BME280;47645;45.288;12.038;2023-05-14T00:14:46;1014.2407400903154;;;13.1435546875;100
61740;BME280;47645;45.288;12.038;2023-05-14T00:24:47;1014.1711908748064;;;13.1537109375;100
61740;BME280;47645;45.288;12.038;2023-05-14T00:34:48;1014.15436968324;;;13.373046875;100
61740;BME280;47645;45.288;12.038;2023-05-14T00:44:49;1014.0081726089052;;;13.7806640625;100
61740;BME280;47645;45.288;12.038;2023-05-14T00:54:50;1013.8112280439065;;;13.6685546875;100
61740;BME280;47645;45.288;12.038;2023-05-14T01:04:51;1013.7967132552786;;;13.7296875;99.12650214062303
61740;BME280;47645;45.288;12.038;2023-05-14T01:14:56;1013.8410093650363;;;13.821484375;97.84391628413275
61740;BME280;47645;45.288;12.038;2023-05-14T01:24:53;1013.8138193517827;;;13.938671875;97.38000283276487
61740;BME280;47645;45.288;12.038;2023-05-14T01:34:56;1013.736008058548;;;13.6888671875;98.66457576585181
61740;BME280;47645;45.288;12.038;2023-05-14T01:44:56;1013.6319181437258;;;13.7654296875;99.63705899291392
61740;BME280;47645;45.288;12.038;2023-05-14T01:54:57;1013.5006599567984;;;13.94375;99.90772144120896
61740;BME280;47645;45.288;12.038;2023-05-14T02:04:57;1013.5153606379198;;;13.9896484375;100
61740;BME280;47645;45.288;12.038;2023-05-14T02:14:58;1013.4683106054164;;;14.12734375;100
61740;BME280;47645;45.288;12.038;2023-05-14T02:24:59;1013.3883611292221;;;14.0814453125;100
61740;BME280;47645;45.288;12.038;2023-05-14T02:35:00;1013.3358234333455;;;14.0662109375;100
61740;BME280;47645;45.288;12.038;2023-05-14T02:45:01;1013.1979892075941;;;14.035546875;100
61740;BME280;47645;45.288;12.038;2023-05-14T02:55:02;1013.247414490897;;;14.1732421875;100
61740;BME280;47645;45.288;12.038;2023-05-14T03:05:03;1013.2145399701872;;;14.162890625;100
61740;BME280;47645;45.288;12.038;2023-05-14T03:15:04;1013.1077241070778;;;14.239453125;100
61740;BME280;47645;45.288;12.038;2023-05-14T03:20:06;1013.0228029716858;;;14.234375;100
61740;BME280;47645;45.288;12.038;2023-05-14T03:30:07;1012.9966069187736;;;14.5197265625;100
61740;BME280;47645;45.288;12.038;2023-05-14T03:40:07;1012.7956488133938;;;14.580859375;100
61740;BME280;47645;45.288;12.038;2023-05-14T03:50:08;1012.7554641838626;;;14.47890625;100
61740;BME280;47645;45.288;12.038;2023-05-14T04:00:09;1012.6726224940671;;;14.4126953125;99.84142338954503
61740;BME280;47645;45.288;12.038;2023-05-14T04:10:09;1012.5726844752334;;;14.24453125;100
61740;BME280;47645;45.288;12.038;2023-05-14T04:20:10;1012.5434506818763;;;14.132421875;100
61740;BME280;47645;45.288;12.038;2023-05-14T04:30:12;1012.4741307547375;;;14.040625;100
61740;BME280;47645;45.288;12.038;2023-05-14T04:40:12;1012.5650948410242;;;14.453515625;100
61740;BME280;47645;45.288;12.038;2023-05-14T04:50:14;1012.6158915634059;;;14.3974609375;100
61740;BME280;47645;45.288;12.038;2023-05-14T05:00:15;1012.7039993753954;;;14.3923828125;100
61740;BME280;47645;45.288;12.038;2023-05-14T05:10:15;1012.7959238359813;;;14.5197265625;100
61740;BME280;47645;45.288;12.038;2023-05-14T05:20:16;1012.6301675583927;;;14.38203125;100
61740;BME280;47645;45.288;12.038;2023-05-14T05:30:17;1012.646252492316;;;14.4228515625;100
61740;BME280;47645;45.288;12.038;2023-05-14T05:40:18;1012.707991697869;;;14.2802734375;100
61740;BME280;47645;45.288;12.038;2023-05-14T05:50:20;1012.7390541261884;;;14.16796875;100
61740;BME280;47645;45.288;12.038;2023-05-14T06:00:21;1012.7791780214986;;;13.73984375;100
61740;BME280;47645;45.288;12.038;2023-05-14T06:10:21;1012.6729112703885;;;13.6888671875;100
61740;BME280;47645;45.288;12.038;2023-05-14T06:20:22;1012.6298707137648;;;13.821484375;100
61740;BME280;47645;45.288;12.038;2023-05-14T06:30:23;1012.5196531912619;;;14.14765625;100
61740;BME280;47645;45.288;12.038;2023-05-14T06:40:24;1012.5157315834681;;;14.0048828125;100
61740;BME280;47645;45.288;12.038;2023-05-14T06:50:25;1012.6193328202346;;;13.8265625;100
61740;BME280;47645;45.288;12.038;2023-05-14T07:00:27;1012.4991553519245;;;13.831640625;100
61740;BME280;47645;45.288;12.038;2023-05-14T07:10:27;1012.4462139245849;;;14.035546875;100
61740;BME280;47645;45.288;12.038;2023-05-14T07:20:28;1012.3248694782969;;;13.908203125;100
61740;BME280;47645;45.288;12.038;2023-05-14T07:30:29;1012.1623690762333;;;13.7908203125;100
61740;BME280;47645;45.288;12.038;2023-05-14T07:40:30;1012.0988201587832;;;13.7501953125;100
61740;BME280;47645;45.288;12.038;2023-05-14T07:50:31;1012.0299037489406;;;13.6482421875;100
61740;BME280;47645;45.288;12.038;2023-05-14T08:00:32;1011.9803247476087;;;13.694140625;100
61740;BME280;47645;45.288;12.038;2023-05-14T08:10:33;1011.818598297351;;;13.744921875;100
61740;BME280;47645;45.288;12.038;2023-05-14T08:20:34;1011.755649040598;;;13.5818359375;100
61740;BME280;47645;45.288;12.038;2023-05-14T08:30:35;1011.6272509222903;;;13.8775390625;100
61740;BME280;47645;45.288;12.038;2023-05-14T08:40:36;1011.7243316492267;;;14.1833984375;100
61740;BME280;47645;45.288;12.038;2023-05-14T08:50:37;1011.630636170471;;;14.5453125;100
61740;BME280;47645;45.288;12.038;2023-05-14T09:00:38;1011.4874906399964;;;15.2740234375;100
61740;BME280;47645;45.288;12.038;2023-05-14T09:10:39;1011.4878337473142;;;15.21796875;100
61740;BME280;47645;45.288;12.038;2023-05-14T09:20:40;1011.4751898286164;;;16.0640625;99.48030656045619
61740;BME280;47645;45.288;12.038;2023-05-14T09:30:41;1011.3680948991309;;;16.7318359375;96.53235899787906
61740;BME280;47645;45.288;12.038;2023-05-14T09:40:42;1011.3528278515117;;;17.0478515625;90.12262839753811
61740;BME280;47645;45.288;12.038;2023-05-14T09:50:44;1011.320886145273;;;17.5421875;87.54743583489831
61740;BME280;47645;45.288;12.038;2023-05-14T10:00:45;1011.3147548705971;;;17.868359375;79.45660775646218
61740;BME280;47645;45.288;12.038;2023-05-14T10:10:46;1011.1871720302763;;;18.2966796875;79.33666187570307
61740;BME280;47645;45.288;12.038;2023-05-14T10:20:56;1011.1534883855903;;;17.7767578125;73.85289008578961
61740;BME280;47645;45.288;12.038;2023-05-14T10:30:49;1011.0674577750444;;;17.93984375;81.4941430882436
61740;BME280;47645;45.288;12.038;2023-05-14T10:40:49;1011.0061683726235;;;17.409765625;80.87377206465597
61740;BME280;47645;45.288;12.038;2023-05-14T10:50:52;1010.942390116943;;;16.665625;83.48016804369186
61740;BME280;47645;45.288;12.038;2023-05-14T11:00:53;1010.9042322099561;;;16.69609375;82.91700530268501
61740;BME280;47645;45.288;12.038;2023-05-14T11:10:54;1010.9670919239663;;;16.7623046875;86.98628928263763
61740;BME280;47645;45.288;12.038;2023-05-14T11:20:57;1010.8917667809962;;;17.0681640625;84.04514856921607
61740;BME280;47645;45.288;12.038;2023-05-14T11:30:55;1010.8688411745163;;;17.8888671875;80.55254198845334
61740;BME280;47645;45.288;12.038;2023-05-14T11:40:58;1010.9081099592761;;;18.3119140625;77.33830914707843
61740;BME280;47645;45.288;12.038;2023-05-14T11:50:57;1010.9118388210402;;;18.031640625;74.22889954192692
61740;BME280;47645;45.288;12.038;2023-05-14T12:00:59;1010.8338380712236;;;17.853125;76.75095326591534
61740;BME280;47645;45.288;12.038;2023-05-14T12:11:00;1010.6870192769886;;;17.934765625;77.95024246936093
61740;BME280;47645;45.288;12.038;2023-05-14T12:21:02;1010.6439571689018;;;18.0162109375;76.28576109497699
61740;BME280;47645;45.288;12.038;2023-05-14T12:31:02;1010.5754457734216;;;17.7666015625;78.57377510966063
61740;BME280;47645;45.288;12.038;2023-05-14T12:41:03;1010.5000775292868;;;17.817578125;82.27746435354362
61740;BME280;47645;45.288;12.038;2023-05-14T12:51:05;1010.5022485176626;;;17.4912109375;77.83741914500659
61740;BME280;47645;45.288;12.038;2023-05-14T13:01:06;1010.5183726345863;;;17.516796875;76.82499845536742
61740;BME280;47645;45.288;12.038;2023-05-14T13:11:07;1010.486350143152;;;17.4759765625;76.74255009748929
61740;BME280;47645;45.288;12.038;2023-05-14T13:21:08;1010.4854672955963;;;17.6748046875;76.30293199946928
61740;BME280;47645;45.288;12.038;2023-05-14T13:31:10;1010.3642913491005;;;17.7666015625;78.91705686887522
61740;BME280;47645;45.288;12.038;2023-05-14T13:41:10;1010.3396111312529;;;17.7818359375;77.55178069758058
61740;BME280;47645;45.288;12.038;2023-05-14T13:51:11;1010.3708212481938;;;17.623828125;77.27383146344758
61740;BME280;47645;45.288;12.038;2023-05-14T14:01:12;1010.2282131933224;;;17.75625;78.17219135093193
61740;BME280;47645;45.288;12.038;2023-05-14T14:11:13;1010.0974946125825;;;17.7818359375;78.78773333617498
61740;BME280;47645;45.288;12.038;2023-05-14T14:21:17;1010.0186529249943;;;17.74609375;76.7414975134499
61740;BME280;47645;45.288;12.038;2023-05-14T14:31:16;1010.0003217275823;;;17.9857421875;76.90463485878729
61740;BME280;47645;45.288;12.038;2023-05-14T14:41:16;1009.9643763068314;;;17.9296875;78.46400272350107
61740;BME280;47645;45.288;12.038;2023-05-14T14:51:18;1009.9197890239262;;;18.1947265625;77.72990052882396
61740;BME280;47645;45.288;12.038;2023-05-14T15:01:19;1010.054933153996;;;18.0927734375;75.01393141716714
61740;BME280;47645;45.288;12.038;2023-05-14T15:11:20;1010.0125087717174;;;17.9142578125;76.46241003821258
61740;BME280;47645;45.288;12.038;2023-05-14T15:21:21;1010.0176869428715;;;17.6697265625;78.46409822389775
61740;BME280;47645;45.288;12.038;2023-05-14T15:31:22;1010.0563550776476;;;17.7869140625;75.82010643249784
61740;BME280;47645;45.288;12.038;2023-05-14T15:41:25;1010.0300638586201;;;17.84296875;76.9316523849731
61740;BME280;47645;45.288;12.038;2023-05-14T15:51:24;1010.0225009530014;;;17.6849609375;84.6594293473325
61740;BME280;47645;45.288;12.038;2023-05-14T16:01:25;1009.9323753734207;;;17.55234375;79.76632654348118
61740;BME280;47645;45.288;12.038;2023-05-14T16:11:27;1009.961906114351;;;17.521875;78.97417065082317
61740;BME280;47645;45.288;12.038;2023-05-14T16:21:28;1010.0186868083138;;;17.3892578125;82.01537494781255
61740;BME280;47645;45.288;12.038;2023-05-14T16:31:31;1009.9866966492872;;;17.2517578125;79.96470239672519
61740;BME280;47645;45.288;12.038;2023-05-14T16:41:30;1009.9720234213781;;;17.328125;86.38775799053323
61740;BME280;47645;45.288;12.038;2023-05-14T16:51:32;1009.8746837157686;;;17.1751953125;81.38862631415385
61740;BME280;47645;45.288;12.038;2023-05-14T17:01:32;1009.8746837157686;;;17.185546875;85.13653632364577
61740;BME280;47645;45.288;12.038;2023-05-14T17:11:33;1009.8982808534416;;;16.9712890625;84.91144726181847
61740;BME280;47645;45.288;12.038;2023-05-14T17:21:34;1009.8960591421469;;;16.7521484375;85.73211745637343
61740;BME280;47645;45.288;12.038;2023-05-14T17:31:35;1009.784093842002;;;16.553515625;87.209027661647
61740;BME280;47645;45.288;12.038;2023-05-14T17:41:37;1009.8308780379317;;;16.59921875;90.15016283801602
61740;BME280;47645;45.288;12.038;2023-05-14T17:51:38;1009.7106596508496;;;16.6859375;92.7625522515183
61740;BME280;47645;45.288;12.038;2023-05-14T18:01:38;1009.7983959460985;;;16.6197265625;92.70287156082325
61740;BME280;47645;45.288;12.038;2023-05-14T18:11:40;1009.783157701336;;;16.471875;93.41944645171215
61740;BME280;47645;45.288;12.038;2023-05-14T18:21:45;1009.8978059740476;;;16.583984375;93.00175981358367
61740;BME280;47645;45.288;12.038;2023-05-14T18:31:42;1009.8995572680819;;;16.471875;93.71132447177938
61740;BME280;47645;45.288;12.038;2023-05-14T18:41:43;1010.0145210470292;;;16.5177734375;93.30121109255494
61740;BME280;47645;45.288;12.038;2023-05-14T18:51:45;1010.144916854315;;;16.3037109375;93.89022339712777
61740;BME280;47645;45.288;12.038;2023-05-14T19:01:45;1010.212271341132;;;16.0640625;97.01539443804022
61740;BME280;47645;45.288;12.038;2023-05-14T19:11:46;1010.2476475189777;;;15.8296875;98.49839858937301
61740;BME280;47645;45.288;12.038;2023-05-14T19:21:47;1010.2802413545052;;;15.6970703125;98.32002068089365
61740;BME280;47645;45.288;12.038;2023-05-14T19:31:48;1010.3370255002069;;;15.64609375;100
61740;BME280;47645;45.288;12.038;2023-05-14T19:41:49;1010.5548920264929;;;15.4525390625;100
61740;BME280;47645;45.288;12.038;2023-05-14T19:51:50;1010.5938510127696;;;15.00390625;100
61740;BME280;47645;45.288;12.038;2023-05-14T20:01:51;1010.4313998267945;;;14.76953125;100
61740;BME280;47645;45.288;12.038;2023-05-14T20:11:52;1010.3392301195809;;;14.901953125;100
61740;BME280;47645;45.288;12.038;2023-05-14T20:21:53;1010.4066891144424;;;14.38203125;100
61740;BME280;47645;45.288;12.038;2023-05-14T20:31:54;1010.3787224780646;;;14.891796875;100
61740;BME280;47645;45.288;12.038;2023-05-14T20:41:55;1010.2817611428483;;;14.9630859375;100
61740;BME280;47645;45.288;12.038;2023-05-14T20:51:56;1010.2382138859612;;;14.9478515625;100
61740;BME280;47645;45.288;12.038;2023-05-14T21:01:57;1010.066145657315;;;14.9580078125;100
61740;BME280;47645;45.288;12.038;2023-05-14T21:11:58;1010.1026781729396;;;15.019140625;100
61740;BME280;47645;45.288;12.038;2023-05-14T21:21:59;1009.9172404531657;;;14.8306640625;100
61740;BME280;47645;45.288;12.038;2023-05-14T21:32:00;1009.9108322879167;;;14.7134765625;100
61740;BME280;47645;45.288;12.038;2023-05-14T21:42:00;1009.9912454553877;;;14.8;100
61740;BME280;47645;45.288;12.038;2023-05-14T21:52:02;1009.8999173946079;;;14.698046875;100
61740;BME280;47645;45.288;12.038;2023-05-14T22:02:03;1009.9217400608338;;;14.463671875;100
61740;BME280;47645;45.288;12.038;2023-05-14T22:12:05;1009.7085066009372;;;14.5146484375;100
61740;BME280;47645;45.288;12.038;2023-05-14T22:22:04;1009.6498548759504;;;14.3923828125;100
61740;BME280;47645;45.288;12.038;2023-05-14T22:32:07;1009.707180556278;;;14.3158203125;100
61740;BME280;47645;45.288;12.038;2023-05-14T22:42:07;1009.6231835198455;;;14.239453125;100
61740;BME280;47645;45.288;12.038;2023-05-14T22:52:08;1009.6769821975649;;;14.0966796875;100
61740;BME280;47645;45.288;12.038;2023-05-14T23:02:08;1009.7202932431021;;;14.1783203125;100
61740;BME280;47645;45.288;12.038;2023-05-14T23:12:10;1009.6736707588028;;;14.1068359375;100
61740;BME280;47645;45.288;12.038;2023-05-14T23:22:11;1009.6481572013479;;;14.0763671875;100
61740;BME280;47645;45.288;12.038;2023-05-14T23:32:12;1009.5030423220044;;;14.0916015625;100
61740;BME280;47645;45.288;12.038;2023-05-14T23:42:12;1009.3822070971181;;;14.12734375;100
61740;BME280;47645;45.288;12.038;2023-05-14T23:52:13;1009.234495409983;;;14.03046875;100
